sensor_id;sensor_type;location;lat;lon;timestamp;P1;durP1;ratioP1;P2;durP2;ratioP2
37657;SDS011;23500;53.268;8.308;2023-03-13T00:01:29;5.60;;;4.97;;
37657;SDS011;23500;53.268;8.308;2023-03-13T00:03:56;5.55;;;5.05;;
37657;SDS011;23500;53.268;8.308;2023-03-13T00:06:23;6.25;;;5.03;;
37657;SDS011;23500;53.268;8.308;2023-03-13T00:08:50;6.22;;;5.30;;
37657;SDS011;23500;53.268;8.308;2023-03-13T00:11:15;5.30;;;4.80;;
37657;SDS011;23500;53.268;8.308;2023-03-13T00:13:41;5.65;;;5.07;;
37657;SDS011;23500;53.268;8.308;2023-03-13T00:16:08;6.40;;;5.30;;
37657;SDS011;23500;53.268;8.308;2023-03-13T00:18:36;5.70;;;5.20;;
37657;SDS011;23500;53.268;8.308;2023-03-13T00:21:03;5.45;;;4.85;;
37657;SDS011;23500;53.268;8.308;2023-03-13T00:23:31;5.50;;;5.00;;
37657;SDS011;23500;53.268;8.308;2023-03-13T00:25:58;6.28;;;5.13;;
37657;SDS011;23500;53.268;8.308;2023-03-13T00:28:29;6.90;;;5.20;;
37657;SDS011;23500;53.268;8.308;2023-03-13T00:31:09;5.07;;;4.57;;
37657;SDS011;23500;53.268;8.308;2023-03-13T00:33:38;5.35;;;4.85;;
37657;SDS011;23500;53.268;8.308;2023-03-13T00:36:06;5.93;;;5.10;;
37657;SDS011;23500;53.268;8.308;2023-03-13T00:38:36;5.28;;;4.70;;
37657;SDS011;23500;53.268;8.308;2023-03-13T00:41:11;5.28;;;4.80;;
37657;SDS011;23500;53.268;8.308;2023-03-13T00:43:43;6.35;;;5.20;;
37657;SDS011;23500;53.268;8.308;2023-03-13T00:46:09;6.50;;;4.90;;
37657;SDS011;23500;53.268;8.308;2023-03-13T00:48:36;5.88;;;4.85;;
37657;SDS011;23500;53.268;8.308;2023-03-13T00:51:03;5.57;;;4.90;;
37657;SDS011;23500;53.268;8.308;2023-03-13T00:53:29;5.55;;;4.53;;
37657;SDS011;23500;53.268;8.308;2023-03-13T00:55:56;5.63;;;4.75;;
37657;SDS011;23500;53.268;8.308;2023-03-13T00:58:27;5.47;;;4.70;;
37657;SDS011;23500;53.268;8.308;2023-03-13T01:00:55;7.03;;;4.57;;
37657;SDS011;23500;53.268;8.308;2023-03-13T01:03:21;5.22;;;4.72;;
37657;SDS011;23500;53.268;8.308;2023-03-13T01:05:57;6.35;;;4.72;;
37657;SDS011;23500;53.268;8.308;2023-03-13T01:08:25;5.78;;;5.10;;
37657;SDS011;23500;53.268;8.308;2023-03-13T01:11:01;6.35;;;5.22;;
37657;SDS011;23500;53.268;8.308;2023-03-13T01:13:29;5.35;;;4.85;;
37657;SDS011;23500;53.268;8.308;2023-03-13T01:15:57;5.45;;;4.95;;
37657;SDS011;23500;53.268;8.308;2023-03-13T01:18:30;5.82;;;4.95;;
37657;SDS011;23500;53.268;8.308;2023-03-13T01:20:57;6.07;;;4.80;;
37657;SDS011;23500;53.268;8.308;2023-03-13T01:23:22;5.22;;;4.50;;
37657;SDS011;23500;53.268;8.308;2023-03-13T01:25:48;5.20;;;4.70;;
37657;SDS011;23500;53.268;8.308;2023-03-13T01:28:14;6.18;;;4.65;;
37657;SDS011;23500;53.268;8.308;2023-03-13T01:30:39;5.45;;;4.50;;
37657;SDS011;23500;53.268;8.308;2023-03-13T01:33:05;5.95;;;4.45;;
37657;SDS011;23500;53.268;8.308;2023-03-13T01:35:31;6.45;;;5.00;;
37657;SDS011;23500;53.268;8.308;2023-03-13T01:37:56;8.65;;;5.10;;
37657;SDS011;23500;53.268;8.308;2023-03-13T01:40:22;5.45;;;4.32;;
37657;SDS011;23500;53.268;8.308;2023-03-13T01:48:22;5.00;;;4.50;;
37657;SDS011;23500;53.268;8.308;2023-03-13T01:51:03;5.07;;;4.57;;
37657;SDS011;23500;53.268;8.308;2023-03-13T01:53:32;5.40;;;4.90;;
37657;SDS011;23500;53.268;8.308;2023-03-13T01:56:00;6.20;;;4.72;;
37657;SDS011;23500;53.268;8.308;2023-03-13T01:58:30;5.32;;;4.60;;
37657;SDS011;23500;53.268;8.308;2023-03-13T02:00:56;4.55;;;4.13;;
37657;SDS011;23500;53.268;8.308;2023-03-13T02:03:23;5.20;;;4.07;;
37657;SDS011;23500;53.268;8.308;2023-03-13T02:05:50;5.72;;;4.82;;
37657;SDS011;23500;53.268;8.308;2023-03-13T02:08:20;6.13;;;4.70;;
37657;SDS011;23500;53.268;8.308;2023-03-13T02:10:53;4.72;;;4.32;;
37657;SDS011;23500;53.268;8.308;2023-03-13T02:13:27;5.97;;;4.00;;
37657;SDS011;23500;53.268;8.308;2023-03-13T02:15:53;5.20;;;4.00;;
37657;SDS011;23500;53.268;8.308;2023-03-13T02:18:19;5.03;;;4.53;;
37657;SDS011;23500;53.268;8.308;2023-03-13T02:20:45;5.00;;;4.50;;
37657;SDS011;23500;53.268;8.308;2023-03-13T02:23:21;4.90;;;4.40;;
37657;SDS011;23500;53.268;8.308;2023-03-13T02:25:53;4.55;;;4.13;;
37657;SDS011;23500;53.268;8.308;2023-03-13T02:28:22;5.15;;;4.43;;
37657;SDS011;23500;53.268;8.308;2023-03-13T02:30:52;5.03;;;4.30;;
37657;SDS011;23500;53.268;8.308;2023-03-13T02:33:20;4.60;;;4.10;;
37657;SDS011;23500;53.268;8.308;2023-03-13T02:35:50;5.45;;;4.35;;
37657;SDS011;23500;53.268;8.308;2023-03-13T02:38:19;4.38;;;3.97;;
37657;SDS011;23500;53.268;8.308;2023-03-13T02:40:47;4.65;;;4.00;;
37657;SDS011;23500;53.268;8.308;2023-03-13T02:43:17;5.80;;;4.55;;
37657;SDS011;23500;53.268;8.308;2023-03-13T02:45:59;5.90;;;4.50;;
37657;SDS011;23500;53.268;8.308;2023-03-13T02:48:43;4.28;;;3.85;;
37657;SDS011;23500;53.268;8.308;2023-03-13T02:51:21;5.18;;;4.38;;
37657;SDS011;23500;53.268;8.308;2023-03-13T02:53:52;5.40;;;4.30;;
37657;SDS011;23500;53.268;8.308;2023-03-13T02:56:21;5.18;;;4.30;;
37657;SDS011;23500;53.268;8.308;2023-03-13T02:58:49;5.45;;;4.18;;
37657;SDS011;23500;53.268;8.308;2023-03-13T03:01:15;4.50;;;4.07;;
37657;SDS011;23500;53.268;8.308;2023-03-13T03:03:40;6.53;;;4.15;;
37657;SDS011;23500;53.268;8.308;2023-03-13T03:06:06;4.35;;;3.95;;
37657;SDS011;23500;53.268;8.308;2023-03-13T03:08:32;5.07;;;4.30;;
37657;SDS011;23500;53.268;8.308;2023-03-13T03:10:59;4.93;;;4.03;;
37657;SDS011;23500;53.268;8.308;2023-03-13T03:13:24;4.75;;;3.90;;
37657;SDS011;23500;53.268;8.308;2023-03-13T03:15:50;6.05;;;4.75;;
37657;SDS011;23500;53.268;8.308;2023-03-13T03:18:16;4.68;;;4.03;;
37657;SDS011;23500;53.268;8.308;2023-03-13T03:20:41;4.60;;;4.00;;
37657;SDS011;23500;53.268;8.308;2023-03-13T03:23:07;4.68;;;3.85;;
37657;SDS011;23500;53.268;8.308;2023-03-13T03:25:33;4.93;;;3.95;;
37657;SDS011;23500;53.268;8.308;2023-03-13T03:27:59;3.85;;;3.45;;
37657;SDS011;23500;53.268;8.308;2023-03-13T03:30:24;4.85;;;4.03;;
37657;SDS011;23500;53.268;8.308;2023-03-13T03:32:50;4.65;;;3.80;;
37657;SDS011;23500;53.268;8.308;2023-03-13T03:35:16;5.07;;;3.80;;
37657;SDS011;23500;53.268;8.308;2023-03-13T03:37:41;4.82;;;4.13;;
37657;SDS011;23500;53.268;8.308;2023-03-13T03:40:07;4.47;;;3.90;;
37657;SDS011;23500;53.268;8.308;2023-03-13T03:42:33;4.50;;;4.07;;
37657;SDS011;23500;53.268;8.308;2023-03-13T03:44:59;4.75;;;3.67;;
37657;SDS011;23500;53.268;8.308;2023-03-13T03:47:25;4.28;;;3.75;;
37657;SDS011;23500;53.268;8.308;2023-03-13T03:49:50;4.20;;;3.70;;
37657;SDS011;23500;53.268;8.308;2023-03-13T03:52:16;4.35;;;3.72;;
37657;SDS011;23500;53.268;8.308;2023-03-13T03:54:42;4.82;;;4.00;;
37657;SDS011;23500;53.268;8.308;2023-03-13T03:57:07;4.95;;;3.90;;
37657;SDS011;23500;53.268;8.308;2023-03-13T03:59:33;5.07;;;4.10;;
37657;SDS011;23500;53.268;8.308;2023-03-13T04:01:59;5.40;;;3.60;;
37657;SDS011;23500;53.268;8.308;2023-03-13T04:04:24;5.22;;;3.90;;
37657;SDS011;23500;53.268;8.308;2023-03-13T04:06:50;5.13;;;3.83;;
37657;SDS011;23500;53.268;8.308;2023-03-13T04:09:16;4.30;;;3.90;;
37657;SDS011;23500;53.268;8.308;2023-03-13T04:11:42;4.07;;;3.67;;
37657;SDS011;23500;53.268;8.308;2023-03-13T04:14:07;6.88;;;4.10;;
37657;SDS011;23500;53.268;8.308;2023-03-13T04:16:33;5.55;;;3.90;;
37657;SDS011;23500;53.268;8.308;2023-03-13T04:18:59;4.68;;;3.58;;
37657;SDS011;23500;53.268;8.308;2023-03-13T04:21:24;4.50;;;3.45;;
37657;SDS011;23500;53.268;8.308;2023-03-13T04:23:50;4.00;;;3.40;;
37657;SDS011;23500;53.268;8.308;2023-03-13T04:26:16;4.28;;;3.85;;
37657;SDS011;23500;53.268;8.308;2023-03-13T04:28:41;4.47;;;3.85;;
37657;SDS011;23500;53.268;8.308;2023-03-13T04:31:07;3.80;;;3.40;;
37657;SDS011;23500;53.268;8.308;2023-03-13T04:33:33;4.13;;;3.72;;
37657;SDS011;23500;53.268;8.308;2023-03-13T04:36:00;4.40;;;3.80;;
37657;SDS011;23500;53.268;8.308;2023-03-13T04:38:26;3.72;;;3.40;;
37657;SDS011;23500;53.268;8.308;2023-03-13T04:40:52;4.50;;;4.00;;
37657;SDS011;23500;53.268;8.308;2023-03-13T04:43:18;4.55;;;4.15;;
37657;SDS011;23500;53.268;8.308;2023-03-13T04:45:43;3.78;;;3.42;;
37657;SDS011;23500;53.268;8.308;2023-03-13T04:48:10;3.90;;;3.50;;
37657;SDS011;23500;53.268;8.308;2023-03-13T04:50:36;4.10;;;3.60;;
37657;SDS011;23500;53.268;8.308;2023-03-13T04:53:02;3.90;;;3.50;;
37657;SDS011;23500;53.268;8.308;2023-03-13T04:55:28;4.75;;;3.90;;
37657;SDS011;23500;53.268;8.308;2023-03-13T04:57:54;4.13;;;3.60;;
37657;SDS011;23500;53.268;8.308;2023-03-13T05:00:20;3.50;;;3.20;;
37657;SDS011;23500;53.268;8.308;2023-03-13T05:02:45;4.38;;;3.78;;
37657;SDS011;23500;53.268;8.308;2023-03-13T05:05:11;3.83;;;3.22;;
37657;SDS011;23500;53.268;8.308;2023-03-13T05:07:37;3.97;;;3.58;;
37657;SDS011;23500;53.268;8.308;2023-03-13T05:10:03;3.90;;;3.13;;
37657;SDS011;23500;53.268;8.308;2023-03-13T05:12:28;3.78;;;3.38;;
37657;SDS011;23500;53.268;8.308;2023-03-13T05:14:54;4.15;;;3.20;;
37657;SDS011;23500;53.268;8.308;2023-03-13T05:17:20;3.90;;;3.50;;
37657;SDS011;23500;53.268;8.308;2023-03-13T05:19:45;3.65;;;3.35;;
37657;SDS011;23500;53.268;8.308;2023-03-13T05:22:11;5.72;;;3.60;;
37657;SDS011;23500;53.268;8.308;2023-03-13T05:24:37;4.25;;;3.30;;
37657;SDS011;23500;53.268;8.308;2023-03-13T05:27:02;3.63;;;3.10;;
37657;SDS011;23500;53.268;8.308;2023-03-13T05:29:28;3.28;;;2.97;;
37657;SDS011;23500;53.268;8.308;2023-03-13T05:31:53;3.38;;;3.08;;
37657;SDS011;23500;53.268;8.308;2023-03-13T05:34:19;3.60;;;3.30;;
37657;SDS011;23500;53.268;8.308;2023-03-13T05:36:45;3.20;;;2.90;;
37657;SDS011;23500;53.268;8.308;2023-03-13T05:39:10;3.30;;;3.00;;
37657;SDS011;23500;53.268;8.308;2023-03-13T05:41:36;3.22;;;2.92;;
37657;SDS011;23500;53.268;8.308;2023-03-13T05:44:02;4.22;;;3.00;;
37657;SDS011;23500;53.268;8.308;2023-03-13T05:46:27;3.97;;;3.03;;
37657;SDS011;23500;53.268;8.308;2023-03-13T05:48:53;3.33;;;3.03;;
37657;SDS011;23500;53.268;8.308;2023-03-13T05:51:19;3.58;;;3.20;;
37657;SDS011;23500;53.268;8.308;2023-03-13T05:53:44;3.50;;;2.97;;
37657;SDS011;23500;53.268;8.308;2023-03-13T05:56:10;3.15;;;2.80;;
37657;SDS011;23500;53.268;8.308;2023-03-13T05:58:36;2.97;;;2.78;;
37657;SDS011;23500;53.268;8.308;2023-03-13T06:01:05;3.25;;;2.70;;
37657;SDS011;23500;53.268;8.308;2023-03-13T06:03:35;3.22;;;2.92;;
37657;SDS011;23500;53.268;8.308;2023-03-13T06:06:01;3.25;;;2.95;;
37657;SDS011;23500;53.268;8.308;2023-03-13T06:08:27;3.70;;;3.25;;
37657;SDS011;23500;53.268;8.308;2023-03-13T06:10:53;3.15;;;2.80;;
37657;SDS011;23500;53.268;8.308;2023-03-13T06:13:19;3.22;;;2.92;;
37657;SDS011;23500;53.268;8.308;2023-03-13T06:15:54;2.65;;;2.45;;
37657;SDS011;23500;53.268;8.308;2023-03-13T06:18:22;2.97;;;2.67;;
37657;SDS011;23500;53.268;8.308;2023-03-13T06:20:48;3.28;;;2.97;;
37657;SDS011;23500;53.268;8.308;2023-03-13T06:23:19;3.25;;;2.75;;
37657;SDS011;23500;53.268;8.308;2023-03-13T06:25:48;3.00;;;2.70;;
37657;SDS011;23500;53.268;8.308;2023-03-13T06:28:14;3.17;;;2.88;;
37657;SDS011;23500;53.268;8.308;2023-03-13T06:30:40;3.10;;;2.80;;
37657;SDS011;23500;53.268;8.308;2023-03-13T06:33:05;3.13;;;2.83;;
37657;SDS011;23500;53.268;8.308;2023-03-13T06:35:31;2.80;;;2.60;;
37657;SDS011;23500;53.268;8.308;2023-03-13T06:37:57;2.90;;;2.60;;
37657;SDS011;23500;53.268;8.308;2023-03-13T06:40:22;3.00;;;2.80;;
37657;SDS011;23500;53.268;8.308;2023-03-13T06:42:48;4.28;;;3.00;;
37657;SDS011;23500;53.268;8.308;2023-03-13T06:45:13;3.40;;;3.10;;
37657;SDS011;23500;53.268;8.308;2023-03-13T06:47:39;3.13;;;2.70;;
37657;SDS011;23500;53.268;8.308;2023-03-13T06:50:06;3.03;;;2.50;;
37657;SDS011;23500;53.268;8.308;2023-03-13T06:52:32;2.85;;;2.60;;
37657;SDS011;23500;53.268;8.308;2023-03-13T06:54:58;2.55;;;2.35;;
37657;SDS011;23500;53.268;8.308;2023-03-13T06:57:25;3.00;;;2.70;;
37657;SDS011;23500;53.268;8.308;2023-03-13T06:59:50;2.92;;;2.65;;
37657;SDS011;23500;53.268;8.308;2023-03-13T07:02:16;2.65;;;2.42;;
37657;SDS011;23500;53.268;8.308;2023-03-13T07:04:42;3.65;;;2.60;;
37657;SDS011;23500;53.268;8.308;2023-03-13T07:07:07;2.80;;;2.50;;
37657;SDS011;23500;53.268;8.308;2023-03-13T07:09:33;4.15;;;2.72;;
37657;SDS011;23500;53.268;8.308;2023-03-13T07:11:59;2.90;;;2.55;;
37657;SDS011;23500;53.268;8.308;2023-03-13T07:14:24;2.83;;;2.63;;
37657;SDS011;23500;53.268;8.308;2023-03-13T07:16:50;2.78;;;2.58;;
37657;SDS011;23500;53.268;8.308;2023-03-13T07:19:16;2.90;;;2.28;;
37657;SDS011;23500;53.268;8.308;2023-03-13T07:21:42;2.65;;;2.45;;
37657;SDS011;23500;53.268;8.308;2023-03-13T07:24:08;2.63;;;2.40;;
37657;SDS011;23500;53.268;8.308;2023-03-13T07:26:34;3.53;;;2.70;;
37657;SDS011;23500;53.268;8.308;2023-03-13T07:28:59;2.83;;;2.38;;
37657;SDS011;23500;53.268;8.308;2023-03-13T07:31:25;2.85;;;2.30;;
37657;SDS011;23500;53.268;8.308;2023-03-13T07:33:52;2.45;;;2.25;;
37657;SDS011;23500;53.268;8.308;2023-03-13T07:36:20;2.35;;;2.15;;
37657;SDS011;23500;53.268;8.308;2023-03-13T07:38:50;2.85;;;2.30;;
37657;SDS011;23500;53.268;8.308;2023-03-13T07:41:16;2.55;;;2.35;;
37657;SDS011;23500;53.268;8.308;2023-03-13T07:43:43;3.00;;;2.28;;
37657;SDS011;23500;53.268;8.308;2023-03-13T07:46:13;3.92;;;2.22;;
37657;SDS011;23500;53.268;8.308;2023-03-13T07:48:42;2.47;;;2.22;;
37657;SDS011;23500;53.268;8.308;2023-03-13T07:51:12;3.72;;;2.40;;
37657;SDS011;23500;53.268;8.308;2023-03-13T07:53:42;2.42;;;2.22;;
37657;SDS011;23500;53.268;8.308;2023-03-13T07:56:10;2.25;;;2.05;;
37657;SDS011;23500;53.268;8.308;2023-03-13T07:58:37;2.40;;;2.20;;
37657;SDS011;23500;53.268;8.308;2023-03-13T08:01:08;2.58;;;2.25;;
37657;SDS011;23500;53.268;8.308;2023-03-13T08:03:35;2.25;;;2.05;;
37657;SDS011;23500;53.268;8.308;2023-03-13T08:06:03;2.30;;;2.10;;
37657;SDS011;23500;53.268;8.308;2023-03-13T08:08:30;2.30;;;2.10;;
37657;SDS011;23500;53.268;8.308;2023-03-13T08:10:59;2.67;;;2.22;;
37657;SDS011;23500;53.268;8.308;2023-03-13T08:13:30;2.33;;;2.05;;
37657;SDS011;23500;53.268;8.308;2023-03-13T08:18:32;3.72;;;2.40;;
37657;SDS011;23500;53.268;8.308;2023-03-13T08:21:00;2.22;;;1.80;;
37657;SDS011;23500;53.268;8.308;2023-03-13T08:23:27;2.80;;;2.03;;
37657;SDS011;23500;53.268;8.308;2023-03-13T08:25:52;2.42;;;2.10;;
37657;SDS011;23500;53.268;8.308;2023-03-13T08:28:18;2.25;;;2.05;;
37657;SDS011;23500;53.268;8.308;2023-03-13T08:30:44;2.75;;;2.08;;
37657;SDS011;23500;53.268;8.308;2023-03-13T08:33:09;2.10;;;1.83;;
37657;SDS011;23500;53.268;8.308;2023-03-13T08:35:35;2.72;;;2.00;;
37657;SDS011;23500;53.268;8.308;2023-03-13T08:38:00;2.38;;;2.17;;
37657;SDS011;23500;53.268;8.308;2023-03-13T08:40:27;2.58;;;2.00;;
37657;SDS011;23500;53.268;8.308;2023-03-13T08:42:52;2.15;;;1.95;;
37657;SDS011;23500;53.268;8.308;2023-03-13T08:45:18;2.58;;;1.98;;
37657;SDS011;23500;53.268;8.308;2023-03-13T08:47:44;2.42;;;2.10;;
37657;SDS011;23500;53.268;8.308;2023-03-13T08:50:10;2.15;;;1.95;;
37657;SDS011;23500;53.268;8.308;2023-03-13T08:52:35;2.33;;;2.10;;
37657;SDS011;23500;53.268;8.308;2023-03-13T08:55:01;3.60;;;1.98;;
37657;SDS011;23500;53.268;8.308;2023-03-13T08:57:27;2.15;;;1.73;;
37657;SDS011;23500;53.268;8.308;2023-03-13T08:59:52;2.00;;;1.75;;
37657;SDS011;23500;53.268;8.308;2023-03-13T09:02:18;2.25;;;1.90;;
37657;SDS011;23500;53.268;8.308;2023-03-13T09:04:45;2.72;;;1.90;;
37657;SDS011;23500;53.268;8.308;2023-03-13T09:07:12;2.10;;;1.77;;
37657;SDS011;23500;53.268;8.308;2023-03-13T09:09:38;2.58;;;1.88;;
37657;SDS011;23500;53.268;8.308;2023-03-13T09:12:04;3.20;;;1.77;;
37657;SDS011;23500;53.268;8.308;2023-03-13T09:14:29;1.88;;;1.70;;
37657;SDS011;23500;53.268;8.308;2023-03-13T09:16:55;2.25;;;1.65;;
37657;SDS011;23500;53.268;8.308;2023-03-13T09:19:22;2.28;;;1.70;;
37657;SDS011;23500;53.268;8.308;2023-03-13T09:21:48;3.10;;;1.83;;
37657;SDS011;23500;53.268;8.308;2023-03-13T09:24:14;2.20;;;1.70;;
37657;SDS011;23500;53.268;8.308;2023-03-13T09:26:39;1.52;;;1.40;;
37657;SDS011;23500;53.268;8.308;2023-03-13T09:29:05;1.60;;;1.48;;
37657;SDS011;23500;53.268;8.308;2023-03-13T09:31:31;2.13;;;1.50;;
37657;SDS011;23500;53.268;8.308;2023-03-13T09:33:58;2.33;;;1.60;;
37657;SDS011;23500;53.268;8.308;2023-03-13T09:36:24;1.63;;;1.42;;
37657;SDS011;23500;53.268;8.308;2023-03-13T09:38:52;2.00;;;1.80;;
37657;SDS011;23500;53.268;8.308;2023-03-13T09:41:31;2.00;;;1.70;;
37657;SDS011;23500;53.268;8.308;2023-03-13T09:47:08;1.85;;;1.63;;
37657;SDS011;23500;53.268;8.308;2023-03-13T09:49:41;2.13;;;1.50;;
37657;SDS011;23500;53.268;8.308;2023-03-13T09:52:24;1.90;;;1.60;;
37657;SDS011;23500;53.268;8.308;2023-03-13T09:55:19;2.95;;;1.70;;
37657;SDS011;23500;53.268;8.308;2023-03-13T09:57:54;3.45;;;1.70;;
37657;SDS011;23500;53.268;8.308;2023-03-13T10:00:35;3.55;;;1.67;;
37657;SDS011;23500;53.268;8.308;2023-03-13T10:05:35;2.72;;;1.58;;
37657;SDS011;23500;53.268;8.308;2023-03-13T10:08:09;2.25;;;1.50;;
37657;SDS011;23500;53.268;8.308;2023-03-13T10:10:45;1.88;;;1.48;;
37657;SDS011;23500;53.268;8.308;2023-03-13T10:13:21;2.40;;;1.42;;
37657;SDS011;23500;53.268;8.308;2023-03-13T10:15:58;2.38;;;1.70;;
37657;SDS011;23500;53.268;8.308;2023-03-13T10:18:28;2.00;;;1.40;;
37657;SDS011;23500;53.268;8.308;2023-03-13T10:20:56;1.98;;;1.60;;
37657;SDS011;23500;53.268;8.308;2023-03-13T10:23:38;1.60;;;1.40;;
37657;SDS011;23500;53.268;8.308;2023-03-13T10:26:14;2.15;;;1.40;;
37657;SDS011;23500;53.268;8.308;2023-03-13T10:28:45;1.80;;;1.30;;
37657;SDS011;23500;53.268;8.308;2023-03-13T10:31:23;6.90;;;2.13;;
37657;SDS011;23500;53.268;8.308;2023-03-13T10:34:04;3.15;;;1.80;;
37657;SDS011;23500;53.268;8.308;2023-03-13T10:36:44;10.60;;;3.40;;
37657;SDS011;23500;53.268;8.308;2023-03-13T10:39:15;27.05;;;8.48;;
37657;SDS011;23500;53.268;8.308;2023-03-13T10:41:43;45.90;;;11.98;;
37657;SDS011;23500;53.268;8.308;2023-03-13T10:44:14;24.40;;;6.68;;
37657;SDS011;23500;53.268;8.308;2023-03-13T10:46:45;29.88;;;9.23;;
37657;SDS011;23500;53.268;8.308;2023-03-13T10:49:16;47.38;;;13.23;;
37657;SDS011;23500;53.268;8.308;2023-03-13T10:52:02;39.47;;;10.07;;
37657;SDS011;23500;53.268;8.308;2023-03-13T10:54:31;57.60;;;14.88;;
37657;SDS011;23500;53.268;8.308;2023-03-13T10:57:34;46.78;;;13.05;;
37657;SDS011;23500;53.268;8.308;2023-03-13T10:59:54;41.00;;;12.30;;
37657;SDS011;23500;53.268;8.308;2023-03-13T11:04:52;50.28;;;14.25;;
37657;SDS011;23500;53.268;8.308;2023-03-13T11:07:20;49.97;;;14.43;;
37657;SDS011;23500;53.268;8.308;2023-03-13T11:10:02;47.08;;;13.93;;
37657;SDS011;23500;53.268;8.308;2023-03-13T11:12:38;41.65;;;13.48;;
37657;SDS011;23500;53.268;8.308;2023-03-13T11:15:12;45.08;;;14.13;;
37657;SDS011;23500;53.268;8.308;2023-03-13T11:17:40;45.40;;;13.50;;
37657;SDS011;23500;53.268;8.308;2023-03-13T11:30:41;42.25;;;13.70;;
37657;SDS011;23500;53.268;8.308;2023-03-13T11:35:49;44.70;;;13.27;;
37657;SDS011;23500;53.268;8.308;2023-03-13T11:38:32;37.65;;;12.88;;
37657;SDS011;23500;53.268;8.308;2023-03-13T11:41:19;37.00;;;12.27;;
37657;SDS011;23500;53.268;8.308;2023-03-13T11:44:10;35.53;;;11.88;;
37657;SDS011;23500;53.268;8.308;2023-03-13T11:54:50;31.15;;;11.15;;
37657;SDS011;23500;53.268;8.308;2023-03-13T12:00:16;31.35;;;11.15;;
37657;SDS011;23500;53.268;8.308;2023-03-13T12:03:00;33.05;;;11.13;;
37657;SDS011;23500;53.268;8.308;2023-03-13T12:05:32;32.67;;;10.98;;
37657;SDS011;23500;53.268;8.308;2023-03-13T12:08:27;31.60;;;10.55;;
37657;SDS011;23500;53.268;8.308;2023-03-13T12:11:09;28.10;;;9.88;;
37657;SDS011;23500;53.268;8.308;2023-03-13T12:13:53;26.05;;;10.00;;
37657;SDS011;23500;53.268;8.308;2023-03-13T12:16:23;23.27;;;8.88;;
37657;SDS011;23500;53.268;8.308;2023-03-13T12:19:02;23.40;;;9.63;;
37657;SDS011;23500;53.268;8.308;2023-03-13T12:21:31;27.55;;;9.27;;
37657;SDS011;23500;53.268;8.308;2023-03-13T12:24:14;24.67;;;9.63;;
37657;SDS011;23500;53.268;8.308;2023-03-13T12:26:48;23.02;;;9.00;;
37657;SDS011;23500;53.268;8.308;2023-03-13T12:40:02;19.58;;;8.27;;
37657;SDS011;23500;53.268;8.308;2023-03-13T12:42:41;22.58;;;8.40;;
37657;SDS011;23500;53.268;8.308;2023-03-13T12:45:19;17.52;;;7.57;;
37657;SDS011;23500;53.268;8.308;2023-03-13T12:53:39;16.48;;;6.80;;
37657;SDS011;23500;53.268;8.308;2023-03-13T12:59:05;16.92;;;7.38;;
37657;SDS011;23500;53.268;8.308;2023-03-13T13:01:44;16.38;;;6.68;;
37657;SDS011;23500;53.268;8.308;2023-03-13T13:07:05;15.10;;;6.13;;
37657;SDS011;23500;53.268;8.308;2023-03-13T13:12:33;14.00;;;5.78;;
37657;SDS011;23500;53.268;8.308;2023-03-13T13:20:30;13.63;;;5.47;;
37657;SDS011;23500;53.268;8.308;2023-03-13T13:25:51;13.00;;;5.57;;
37657;SDS011;23500;53.268;8.308;2023-03-13T13:30:51;13.23;;;4.97;;
37657;SDS011;23500;53.268;8.308;2023-03-13T13:35:46;11.57;;;5.20;;
37657;SDS011;23500;53.268;8.308;2023-03-13T13:38:34;10.75;;;5.10;;
37657;SDS011;23500;53.268;8.308;2023-03-13T13:43:39;7.43;;;3.38;;
37657;SDS011;23500;53.268;8.308;2023-03-13T13:49:10;7.38;;;3.20;;
37657;SDS011;23500;53.268;8.308;2023-03-13T13:51:40;5.53;;;2.60;;
37657;SDS011;23500;53.268;8.308;2023-03-13T13:57:03;6.85;;;2.40;;
37657;SDS011;23500;53.268;8.308;2023-03-13T13:59:38;7.30;;;2.80;;
37657;SDS011;23500;53.268;8.308;2023-03-13T14:04:33;5.95;;;2.55;;
37657;SDS011;23500;53.268;8.308;2023-03-13T14:07:03;6.78;;;2.67;;
37657;SDS011;23500;53.268;8.308;2023-03-13T14:17:52;5.32;;;2.30;;
37657;SDS011;23500;53.268;8.308;2023-03-13T14:20:39;4.88;;;2.38;;
37657;SDS011;23500;53.268;8.308;2023-03-13T14:23:13;6.28;;;2.30;;
37657;SDS011;23500;53.268;8.308;2023-03-13T14:25:41;6.18;;;2.65;;
37657;SDS011;23500;53.268;8.308;2023-03-13T14:28:14;5.43;;;2.50;;
37657;SDS011;23500;53.268;8.308;2023-03-13T14:30:42;4.15;;;1.98;;
37657;SDS011;23500;53.268;8.308;2023-03-13T14:33:08;4.47;;;2.13;;
37657;SDS011;23500;53.268;8.308;2023-03-13T14:35:34;4.13;;;1.95;;
37657;SDS011;23500;53.268;8.308;2023-03-13T14:38:00;2.67;;;2.17;;
37657;SDS011;23500;53.268;8.308;2023-03-13T14:40:27;4.75;;;2.40;;
37657;SDS011;23500;53.268;8.308;2023-03-13T14:42:55;4.43;;;2.50;;
37657;SDS011;23500;53.268;8.308;2023-03-13T14:45:29;6.07;;;2.30;;
37657;SDS011;23500;53.268;8.308;2023-03-13T14:48:01;4.55;;;2.05;;
37657;SDS011;23500;53.268;8.308;2023-03-13T14:50:29;3.35;;;2.30;;
37657;SDS011;23500;53.268;8.308;2023-03-13T14:52:56;3.30;;;1.92;;
37657;SDS011;23500;53.268;8.308;2023-03-13T14:55:30;3.65;;;2.17;;
37657;SDS011;23500;53.268;8.308;2023-03-13T14:58:00;2.60;;;2.08;;
37657;SDS011;23500;53.268;8.308;2023-03-13T15:00:38;3.08;;;2.08;;
37657;SDS011;23500;53.268;8.308;2023-03-13T15:06:01;5.60;;;1.85;;
37657;SDS011;23500;53.268;8.308;2023-03-13T15:08:26;4.10;;;2.30;;
37657;SDS011;23500;53.268;8.308;2023-03-13T15:10:52;2.60;;;1.85;;
37657;SDS011;23500;53.268;8.308;2023-03-13T15:15:45;4.97;;;2.17;;
37657;SDS011;23500;53.268;8.308;2023-03-13T15:18:15;3.42;;;2.05;;
37657;SDS011;23500;53.268;8.308;2023-03-13T15:20:52;2.53;;;1.90;;
37657;SDS011;23500;53.268;8.308;2023-03-13T15:23:19;2.35;;;1.90;;
37657;SDS011;23500;53.268;8.308;2023-03-13T15:25:46;3.92;;;1.88;;
37657;SDS011;23500;53.268;8.308;2023-03-13T15:28:21;3.17;;;1.98;;
37657;SDS011;23500;53.268;8.308;2023-03-13T15:30:49;3.47;;;2.00;;
37657;SDS011;23500;53.268;8.308;2023-03-13T15:33:16;3.35;;;2.20;;
37657;SDS011;23500;53.268;8.308;2023-03-13T15:35:43;4.18;;;2.33;;
37657;SDS011;23500;53.268;8.308;2023-03-13T15:38:14;3.92;;;2.33;;
37657;SDS011;23500;53.268;8.308;2023-03-13T15:40:41;2.75;;;2.10;;
37657;SDS011;23500;53.268;8.308;2023-03-13T15:43:08;5.25;;;2.15;;
37657;SDS011;23500;53.268;8.308;2023-03-13T15:45:34;3.33;;;2.00;;
37657;SDS011;23500;53.268;8.308;2023-03-13T15:48:02;3.65;;;2.20;;
37657;SDS011;23500;53.268;8.308;2023-03-13T15:50:36;3.92;;;2.28;;
37657;SDS011;23500;53.268;8.308;2023-03-13T15:53:01;3.72;;;2.13;;
37657;SDS011;23500;53.268;8.308;2023-03-13T15:55:35;3.13;;;2.22;;
37657;SDS011;23500;53.268;8.308;2023-03-13T15:58:01;2.67;;;1.98;;
37657;SDS011;23500;53.268;8.308;2023-03-13T16:00:27;3.25;;;1.77;;
37657;SDS011;23500;53.268;8.308;2023-03-13T16:02:52;3.70;;;2.35;;
37657;SDS011;23500;53.268;8.308;2023-03-13T16:05:18;2.22;;;1.85;;
37657;SDS011;23500;53.268;8.308;2023-03-13T16:07:44;3.42;;;2.03;;
37657;SDS011;23500;53.268;8.308;2023-03-13T16:10:14;3.28;;;2.03;;
37657;SDS011;23500;53.268;8.308;2023-03-13T16:12:43;3.22;;;2.00;;
37657;SDS011;23500;53.268;8.308;2023-03-13T16:15:08;4.05;;;2.30;;
37657;SDS011;23500;53.268;8.308;2023-03-13T16:17:34;3.35;;;1.77;;
37657;SDS011;23500;53.268;8.308;2023-03-13T16:20:00;4.32;;;1.95;;
37657;SDS011;23500;53.268;8.308;2023-03-13T16:22:26;2.85;;;1.90;;
37657;SDS011;23500;53.268;8.308;2023-03-13T16:24:52;2.40;;;2.00;;
37657;SDS011;23500;53.268;8.308;2023-03-13T16:27:18;2.97;;;2.00;;
37657;SDS011;23500;53.268;8.308;2023-03-13T16:29:45;3.30;;;2.30;;
37657;SDS011;23500;53.268;8.308;2023-03-13T16:32:14;2.67;;;2.08;;
37657;SDS011;23500;53.268;8.308;2023-03-13T16:34:41;2.17;;;1.70;;
37657;SDS011;23500;53.268;8.308;2023-03-13T16:37:14;4.82;;;2.10;;
37657;SDS011;23500;53.268;8.308;2023-03-13T16:39:42;2.83;;;2.15;;